Pagrindinis puslapis
METAR-TAF:

METAR-TAF

Oro uostai :

Žoan Pesoa, Paraiba, Brazilija

platuma: 07-06S, ilguma: 034-52W, Aukštis: 7 m

Dabartinis oras

Ataskaita buvo paskelbta 15 minutes, ne 05:00 UTC
Ramus vėjas
Temperatūra 22°C
Drėgmė 94%
Slėgis 1015 hPa
Matomumas 10 km arba daugiau
Mažai debesys ne aukštis 2000 ft

METAR: SBJP 220500Z 00000KT 9999 FEW020 22/21 Q1015

Laikas: 02:15 (05:15 UTC)

Prognozė

Ataskaita buvo paskelbta 8 valandos ir 15 minutes, ne 21:00 UTC
Prognozė galioja nuo 22 metu 00 UTC su 22 metu 24 UTC
Vėjas 5 kt iš Pietų
Matomumas 10 km arba daugiau
Išsisklaidę debesys ne aukštis 2000 ft
Tapsmas
nuo 22 metu 13 UTC su 22 metu 15 UTC
Vėjas 10 kt iš Rytų/Pietryčių
Su prošvaistėmis ne aukštis 2500 ft
Tapsmas
nuo 22 metu 21 UTC su 22 metu 23 UTC
Vėjas 5 kt iš Pietų/Pietryčių
Mažai debesys ne aukštis 2000 ft

TAF: SBJP 212100Z 2200/2224 19005KT 9999 SCT020 TN22/2207Z TX29/2216Z BECMG 2213/2215 12010KT BKN025 BECMG 2221/2223 16005KT FEW020 RMK PHD

Orai ataskaitas ir orų prognozės (METAR, TAF).

turimą stotys yra geltonos ir raudonos taškus žemėlapyje.

Perkelti pele per norėdami pamatyti stoties vardą.

Tada spustelėkite, norėdami matyti oro stebėjimo ir prognozės.

Norėdami pakeisti žemėlapį: spustelėkite ant žalios mygtukų su juodo kryžiaus žemyn,; žalią mygtuką su brūkšneliu, jei norite nutolinti; arba žalių rodyklių gretimoms žemėlapius.


METAR-TAF: